createdAt,value
2022-10-02T00:01:47.641Z,0.75
2022-10-02T00:04:20.456Z,0.90
2022-10-02T00:06:50.607Z,1.02
2022-10-02T00:09:30.040Z,1.10
2022-10-02T00:12:00.920Z,0.65
2022-10-02T00:14:36.447Z,1.08
2022-10-02T00:17:05.296Z,0.75
2022-10-02T00:19:33.672Z,0.70
2022-10-02T00:22:12.720Z,0.90
2022-10-02T00:24:49.271Z,0.88
2022-10-02T00:27:34.144Z,0.98
2022-10-02T00:30:05.427Z,0.80
2022-10-02T00:32:42.326Z,1.10
2022-10-02T00:35:38.270Z,0.70
2022-10-02T00:38:16.897Z,0.90
2022-10-02T00:41:05.712Z,0.80
2022-10-02T00:43:42.925Z,1.10
2022-10-02T00:46:29.080Z,1.33
2022-10-02T00:49:10.640Z,1.00
2022-10-02T00:51:49.127Z,1.10
2022-10-02T00:54:40.007Z,0.98
2022-10-02T00:57:18.487Z,0.80
2022-10-02T00:59:58.290Z,1.25
2022-10-02T01:02:54.218Z,0.68
2022-10-02T01:05:22.668Z,1.08
2022-10-02T01:07:54.438Z,1.12
2022-10-02T01:10:25.455Z,1.00
2022-10-02T01:12:56.928Z,1.23
2022-10-02T01:15:31.604Z,1.08
2022-10-02T01:18:02.124Z,1.05
2022-10-02T01:20:35.990Z,0.62
2022-10-02T01:23:16.656Z,0.88
2022-10-02T01:25:46.345Z,1.00
2022-10-02T01:28:14.784Z,0.80
2022-10-02T01:30:46.650Z,0.95
2022-10-02T01:33:16.697Z,0.85
2022-10-02T01:35:45.363Z,0.82
2022-10-02T01:38:16.960Z,1.00
2022-10-02T01:40:46.615Z,1.00
2022-10-02T01:43:18.019Z,0.75
2022-10-02T01:45:54.912Z,0.68
2022-10-02T01:48:36.283Z,1.27
2022-10-02T01:51:26.720Z,0.85
2022-10-02T01:54:04.173Z,1.33
2022-10-02T01:56:43.113Z,1.50
2022-10-02T01:59:21.219Z,1.00
2022-10-02T02:01:59.836Z,0.70
2022-10-02T02:04:34.992Z,1.10
2022-10-02T02:07:12.635Z,0.90
2022-10-02T02:09:46.763Z,0.93
2022-10-02T02:12:22.446Z,0.93
2022-10-02T02:14:55.577Z,1.05
2022-10-02T02:17:27.799Z,1.05
2022-10-02T02:20:03.064Z,1.08
2022-10-02T02:22:35.215Z,1.08
2022-10-02T02:25:09.145Z,1.00
2022-10-02T02:27:42.320Z,1.25
2022-10-02T02:30:14.277Z,1.10
2022-10-02T02:32:46.418Z,0.75
2022-10-02T02:35:18.877Z,1.25
2022-10-02T02:37:50.385Z,1.02
2022-10-02T02:40:24.097Z,1.10
2022-10-02T02:42:59.507Z,1.00
2022-10-02T02:45:32.323Z,1.25
2022-10-02T02:48:09.296Z,1.00
2022-10-02T02:50:43.392Z,1.02
2022-10-02T02:53:16.092Z,1.20
2022-10-02T02:55:49.116Z,1.15
2022-10-02T02:58:22.025Z,0.77
2022-10-02T03:00:50.467Z,0.90
2022-10-02T03:03:18.563Z,1.33
2022-10-02T03:05:49.798Z,0.85
2022-10-02T03:08:23.946Z,0.90
2022-10-02T03:11:05.330Z,1.00
2022-10-02T03:13:51.169Z,0.75
2022-10-02T03:16:39.543Z,0.90
2022-10-02T03:19:24.661Z,1.00
2022-10-02T03:22:03.381Z,1.10
2022-10-02T03:24:36.492Z,1.27
2022-10-02T03:27:09.575Z,1.23
2022-10-02T03:29:44.475Z,0.73
2022-10-02T03:32:15.339Z,1.17
2022-10-02T03:34:44.541Z,1.10
2022-10-02T03:37:12.628Z,1.12
2022-10-02T03:39:44.581Z,0.90
2022-10-02T03:42:15.277Z,1.23
2022-10-02T03:44:44.972Z,0.95
2022-10-02T03:47:13.326Z,1.00
2022-10-02T03:49:41.738Z,1.10
2022-10-02T03:52:16.386Z,0.82
2022-10-02T03:54:45.911Z,1.05
2022-10-02T03:57:19.106Z,1.33
2022-10-02T03:59:55.542Z,1.02
2022-10-02T04:02:32.063Z,1.35
2022-10-02T04:05:07.774Z,0.70
2022-10-02T04:07:40.858Z,0.93
2022-10-02T04:10:26.897Z,1.45
2022-10-02T04:13:01.870Z,0.98
2022-10-02T04:15:37.712Z,1.05
2022-10-02T04:18:11.456Z,1.10
2022-10-02T04:20:46.758Z,0.80
2022-10-02T04:23:22.996Z,0.93
2022-10-02T04:25:55.355Z,0.65
2022-10-02T04:28:29.731Z,1.00
2022-10-02T04:31:01.416Z,0.73
2022-10-02T04:33:36.354Z,0.80
2022-10-02T04:36:18.699Z,0.80
2022-10-02T04:39:29.244Z,1.30
2022-10-02T04:42:20.848Z,1.17
2022-10-02T04:45:05.306Z,1.10
2022-10-02T04:47:57.644Z,0.82
2022-10-02T04:50:46.175Z,0.90
2022-10-02T04:53:33.319Z,1.37
2022-10-02T04:56:22.450Z,1.12
2022-10-02T04:59:06.786Z,1.33
2022-10-02T05:01:50.601Z,1.40
2022-10-02T05:04:39.272Z,1.58
2022-10-02T05:07:25.491Z,1.17
2022-10-02T05:10:01.806Z,1.12
2022-10-02T05:12:43.257Z,1.30
2022-10-02T05:15:38.712Z,1.12
2022-10-02T05:18:35.251Z,1.35
2022-10-02T05:21:18.572Z,1.52
2022-10-02T05:24:02.903Z,1.73
2022-10-02T05:26:48.500Z,1.40
2022-10-02T05:29:29.785Z,1.33
2022-10-02T05:32:17.911Z,1.12
2022-10-02T05:35:03.771Z,1.20
2022-10-02T05:37:45.741Z,1.35
2022-10-02T05:40:22.893Z,1.35
2022-10-02T05:42:59.457Z,1.50
2022-10-02T05:45:32.246Z,1.33
2022-10-02T05:48:07.553Z,1.30
2022-10-02T05:50:37.785Z,1.52
2022-10-02T05:53:17.212Z,1.30
2022-10-02T05:55:50.199Z,1.85
2022-10-02T05:58:25.806Z,1.27
2022-10-02T06:01:01.619Z,1.42
2022-10-02T06:03:35.114Z,1.58
2022-10-02T06:06:11.697Z,2.42
2022-10-02T06:08:48.333Z,1.48
2022-10-02T06:11:21.280Z,1.40
2022-10-02T06:13:53.852Z,1.62
2022-10-02T06:16:28.404Z,1.58
2022-10-02T06:19:01.032Z,1.65
2022-10-02T06:21:34.044Z,1.40
2022-10-02T06:24:10.828Z,1.60
2022-10-02T06:26:45.001Z,1.02
2022-10-02T06:29:23.651Z,1.08
2022-10-02T06:32:03.203Z,1.20
2022-10-02T06:34:31.480Z,1.35
2022-10-02T06:37:22.828Z,1.55
2022-10-02T06:40:21.208Z,1.50
2022-10-02T06:42:58.512Z,1.25
2022-10-02T06:45:36.824Z,1.30
2022-10-02T06:48:11.358Z,1.60
2022-10-02T06:50:53.633Z,1.10
2022-10-02T06:53:40.480Z,1.52
2022-10-02T06:56:27.647Z,1.30
2022-10-02T06:59:06.626Z,1.55
2022-10-02T07:01:48.741Z,1.37
2022-10-02T07:04:42.278Z,1.40
2022-10-02T07:07:23.937Z,1.58
2022-10-02T07:10:06.593Z,1.77
2022-10-02T07:12:57.834Z,1.48
2022-10-02T07:15:56.511Z,1.48
2022-10-02T07:18:35.964Z,1.33
2022-10-02T07:21:11.312Z,1.00
2022-10-02T07:23:47.357Z,1.42
2022-10-02T07:26:46.957Z,1.12
2022-10-02T07:29:33.245Z,1.30
2022-10-02T07:32:31.617Z,1.15
2022-10-02T07:35:09.512Z,1.17
2022-10-02T07:37:47.769Z,1.77
2022-10-02T07:40:35.795Z,1.15
2022-10-02T07:43:18.051Z,1.23
2022-10-02T07:45:58.288Z,1.40
2022-10-02T07:48:45.723Z,1.52
2022-10-02T07:51:45.950Z,1.10
2022-10-02T07:54:30.480Z,1.33
2022-10-02T07:57:06.339Z,1.08
2022-10-02T07:59:43.362Z,1.20
2022-10-02T08:02:29.529Z,1.23
2022-10-02T08:05:01.751Z,1.05
2022-10-02T08:07:31.838Z,1.30
2022-10-02T08:10:07.309Z,1.12
2022-10-02T08:12:41.047Z,1.50
2022-10-02T08:15:16.119Z,1.30
2022-10-02T08:17:50.882Z,1.27
2022-10-02T08:20:31.062Z,0.98
2022-10-02T08:23:06.820Z,1.23
2022-10-02T08:25:44.009Z,0.90
2022-10-02T08:28:20.503Z,1.37
2022-10-02T08:30:49.169Z,1.30
2022-10-02T08:33:20.890Z,1.42
2022-10-02T08:36:07.877Z,1.58
2022-10-02T08:38:42.433Z,0.90
2022-10-02T08:41:41.070Z,1.05
2022-10-02T08:44:39.517Z,1.67
2022-10-02T08:47:40.588Z,1.48
2022-10-02T08:50:48.143Z,1.30
2022-10-02T08:53:52.118Z,1.10
2022-10-02T08:56:39.959Z,1.17
2022-10-02T08:59:54.007Z,1.15
2022-10-02T09:03:06.693Z,1.10
2022-10-02T09:06:05.058Z,1.17
2022-10-02T09:09:12.021Z,1.48
2022-10-02T09:12:22.034Z,1.50
2022-10-02T09:14:56.782Z,1.10
2022-10-02T09:17:49.810Z,1.17
2022-10-02T09:20:44.244Z,1.12
2022-10-02T09:24:02.422Z,1.12
2022-10-02T09:26:45.933Z,1.08
2022-10-02T09:30:03.142Z,1.30
2022-10-02T09:33:16.141Z,1.30
2022-10-02T09:36:25.203Z,1.17
2022-10-02T09:39:33.788Z,1.00
2022-10-02T09:42:48.373Z,1.05
2022-10-02T09:45:51.472Z,1.10
2022-10-02T09:49:00.655Z,0.93
2022-10-02T09:51:43.377Z,1.48
2022-10-02T09:54:48.925Z,0.75
2022-10-02T09:57:54.532Z,1.02
2022-10-02T10:00:58.862Z,1.30
2022-10-02T10:03:49.833Z,1.10
2022-10-02T10:06:40.081Z,1.25
2022-10-02T10:09:42.121Z,1.10
2022-10-02T10:12:46.471Z,1.20
2022-10-02T10:15:50.774Z,1.30
2022-10-02T10:18:48.177Z,0.60
2022-10-02T10:21:51.227Z,1.10
2022-10-02T10:24:51.206Z,1.15
2022-10-02T10:27:50.451Z,0.85
2022-10-02T10:31:04.533Z,0.88
2022-10-02T10:34:18.763Z,0.85
2022-10-02T10:37:17.107Z,1.15
2022-10-02T10:40:21.003Z,0.93
2022-10-02T10:43:25.005Z,1.20
2022-10-02T10:46:09.518Z,0.80
2022-10-02T10:48:59.841Z,1.02
2022-10-02T10:51:32.541Z,1.45
2022-10-02T10:54:27.772Z,1.23
2022-10-02T10:57:01.012Z,1.52
2022-10-02T11:00:15.999Z,1.23
2022-10-02T11:03:07.055Z,1.17
2022-10-02T11:06:03.805Z,1.40
2022-10-02T11:08:54.173Z,0.70
2022-10-02T11:11:27.789Z,0.80
2022-10-02T11:14:15.194Z,1.10
2022-10-02T11:17:10.695Z,1.17
2022-10-02T11:19:53.121Z,1.98
2022-10-02T11:22:53.588Z,1.40
2022-10-02T11:25:39.317Z,1.85
2022-10-02T11:28:34.371Z,1.60
2022-10-02T11:31:20.014Z,1.67
2022-10-02T11:34:13.489Z,1.37
2022-10-02T11:36:52.852Z,1.30
2022-10-02T11:39:41.235Z,1.37
2022-10-02T11:42:25.780Z,1.77
2022-10-02T11:45:14.261Z,1.92
2022-10-02T11:48:14.215Z,1.30
2022-10-02T11:51:14.758Z,2.03
2022-10-02T11:53:59.976Z,1.90
2022-10-02T11:56:53.337Z,2.03
2022-10-02T11:59:40.443Z,1.25
2022-10-02T12:02:16.787Z,1.10
2022-10-02T12:05:05.952Z,1.08
2022-10-02T12:07:44.174Z,0.98
2022-10-02T12:10:28.744Z,0.55
2022-10-02T12:13:15.834Z,0.77
2022-10-02T12:15:53.921Z,1.05
2022-10-02T12:18:36.994Z,1.20
2022-10-02T12:21:37.244Z,1.00
2022-10-02T12:24:35.028Z,1.10
2022-10-02T12:27:14.095Z,1.02
2022-10-02T12:30:00.455Z,1.00
2022-10-02T12:32:44.439Z,0.80
2022-10-02T12:35:27.640Z,0.95
2022-10-02T12:38:07.965Z,1.33
2022-10-02T12:40:48.035Z,1.10
2022-10-02T12:43:40.116Z,0.68
2022-10-02T12:46:25.206Z,1.02
2022-10-02T12:49:16.029Z,0.68
2022-10-02T12:52:00.043Z,0.65
2022-10-02T12:54:59.679Z,0.90
2022-10-02T12:57:55.792Z,0.70
2022-10-02T13:00:26.592Z,1.27
2022-10-02T13:03:19.944Z,0.80
2022-10-02T13:06:07.886Z,0.90
2022-10-02T13:08:49.967Z,0.70
2022-10-02T13:11:32.887Z,0.80
2022-10-02T13:14:18.502Z,0.60
2022-10-02T13:17:10.161Z,1.00
2022-10-02T13:19:53.999Z,1.17
2022-10-02T13:22:31.394Z,0.70
2022-10-02T13:25:19.654Z,0.75
2022-10-02T13:27:59.770Z,0.50
2022-10-02T13:30:36.876Z,0.57
2022-10-02T13:33:18.899Z,0.65
2022-10-02T13:35:57.442Z,0.80
2022-10-02T13:38:39.174Z,0.60
2022-10-02T13:41:18.284Z,0.73
2022-10-02T13:43:58.805Z,0.98
2022-10-02T13:46:39.555Z,0.57
2022-10-02T13:49:21.019Z,1.10
2022-10-02T13:51:57.610Z,0.73
2022-10-02T13:54:43.913Z,1.12
2022-10-02T13:57:26.384Z,0.90
2022-10-02T14:00:08.696Z,0.77
2022-10-02T14:03:03.028Z,0.80
2022-10-02T14:05:41.938Z,0.65
2022-10-02T14:08:52.148Z,0.85
2022-10-02T14:11:31.372Z,0.98
2022-10-02T14:14:17.253Z,0.52
2022-10-02T14:16:59.186Z,0.50
2022-10-02T14:19:52.726Z,0.82
2022-10-02T14:22:38.524Z,0.98
2022-10-02T14:25:30.839Z,0.62
2022-10-02T14:28:38.175Z,0.75
2022-10-02T14:31:22.478Z,0.50
2022-10-02T14:34:10.752Z,0.70
2022-10-02T14:36:50.091Z,0.70
2022-10-02T14:39:31.792Z,0.57
2022-10-02T14:42:15.679Z,0.50
2022-10-02T14:45:07.012Z,0.75
2022-10-02T14:48:03.722Z,0.62
2022-10-02T14:50:52.305Z,0.85
2022-10-02T14:53:41.496Z,1.30
2022-10-02T14:56:36.563Z,0.68
2022-10-02T14:59:22.251Z,0.88
2022-10-02T15:02:01.130Z,1.15
2022-10-02T15:04:44.061Z,0.60
2022-10-02T15:07:15.007Z,0.70
2022-10-02T15:10:02.436Z,0.80
2022-10-02T15:12:45.339Z,0.93
2022-10-02T15:15:19.447Z,0.90
2022-10-02T15:17:56.536Z,0.60
2022-10-02T15:20:37.683Z,0.40
2022-10-02T15:23:10.332Z,0.20
2022-10-02T15:26:09.480Z,0.50
2022-10-02T15:28:50.188Z,0.43
2022-10-02T15:31:26.935Z,0.40
2022-10-02T15:34:06.263Z,0.40
2022-10-02T15:36:53.282Z,0.22
2022-10-02T15:39:47.565Z,0.43
2022-10-02T15:42:26.455Z,0.20
2022-10-02T15:45:11.777Z,0.30
2022-10-02T15:48:13.293Z,0.30
2022-10-02T15:50:53.220Z,0.40
2022-10-02T15:53:33.919Z,0.50
2022-10-02T15:56:22.230Z,0.70
2022-10-02T15:59:09.564Z,0.62
2022-10-02T16:01:50.539Z,0.50
2022-10-02T16:04:26.896Z,0.47
2022-10-02T16:07:26.108Z,0.52
2022-10-02T16:10:12.397Z,1.83
2022-10-02T16:12:59.354Z,1.10
2022-10-02T16:15:33.676Z,0.70
2022-10-02T16:18:15.994Z,0.68
2022-10-02T16:21:12.626Z,0.60
2022-10-02T16:24:17.193Z,1.20
2022-10-02T16:27:09.742Z,1.35
2022-10-02T16:29:47.674Z,1.12
2022-10-02T16:32:26.568Z,0.88
2022-10-02T16:35:17.718Z,0.90
2022-10-02T16:37:47.469Z,0.82
2022-10-02T16:40:26.823Z,0.70
2022-10-02T16:43:23.352Z,0.65
2022-10-02T16:46:03.776Z,0.50
2022-10-02T16:48:42.634Z,0.82
2022-10-02T16:51:25.565Z,0.43
2022-10-02T16:57:53.920Z,1.00
2022-10-02T17:00:29.519Z,0.50
2022-10-02T17:03:03.087Z,0.80
2022-10-02T17:05:41.795Z,0.80
2022-10-02T17:08:17.938Z,0.80
2022-10-02T17:11:09.859Z,0.52
2022-10-02T17:13:49.841Z,1.27
2022-10-02T17:16:24.574Z,0.93
2022-10-02T17:18:56.782Z,0.80
2022-10-02T17:21:30.525Z,1.08
2022-10-02T17:24:21.250Z,1.23
2022-10-02T17:26:54.684Z,0.70
2022-10-02T17:29:28.940Z,0.70
2022-10-02T17:31:58.921Z,0.70
2022-10-02T17:34:30.936Z,0.65
2022-10-02T17:37:07.082Z,0.60
2022-10-02T17:39:57.570Z,0.47
2022-10-02T17:42:43.686Z,0.75
2022-10-02T17:45:36.620Z,1.17
2022-10-02T17:48:26.622Z,0.80
2022-10-02T17:51:51.366Z,0.82
2022-10-02T17:55:00.705Z,0.82
2022-10-02T17:57:53.394Z,1.10
2022-10-02T18:00:24.758Z,1.23
2022-10-02T18:03:26.457Z,1.55
2022-10-02T18:06:18.113Z,2.03
2022-10-02T18:09:12.198Z,2.30
2022-10-02T18:12:12.383Z,2.33
2022-10-02T18:15:03.430Z,1.80
2022-10-02T18:17:44.973Z,1.50
2022-10-02T18:20:24.508Z,1.65
2022-10-02T18:23:22.677Z,1.10
2022-10-02T18:26:03.139Z,0.95
2022-10-02T18:28:56.888Z,1.87
2022-10-02T18:31:55.227Z,1.23
2022-10-02T18:34:49.140Z,0.80
2022-10-02T18:37:39.314Z,0.70
2022-10-02T18:40:22.210Z,0.88
2022-10-02T18:43:04.935Z,1.10
2022-10-02T18:45:47.644Z,0.95
2022-10-02T18:48:36.294Z,0.90
2022-10-02T18:51:19.017Z,1.00
2022-10-02T18:54:03.142Z,0.80
2022-10-02T18:56:51.434Z,0.80
2022-10-02T18:59:32.156Z,0.60
2022-10-02T19:02:14.260Z,1.15
2022-10-02T19:04:55.327Z,0.50
2022-10-02T19:07:29.448Z,0.37
2022-10-02T19:10:21.388Z,0.68
2022-10-02T19:12:53.212Z,1.02
2022-10-02T19:15:27.155Z,0.75
2022-10-02T19:18:03.492Z,0.70
2022-10-02T19:20:51.316Z,0.57
2022-10-02T19:23:25.794Z,0.95
2022-10-02T19:25:56.885Z,1.10
2022-10-02T19:28:29.261Z,0.45
2022-10-02T19:31:03.578Z,0.40
2022-10-02T19:33:43.426Z,0.70
2022-10-02T19:36:19.484Z,0.75
2022-10-02T19:38:54.969Z,0.75
2022-10-02T19:41:24.275Z,0.88
2022-10-02T19:43:57.335Z,0.77
2022-10-02T19:46:33.871Z,0.77
2022-10-02T19:49:03.892Z,0.55
2022-10-02T19:51:43.463Z,0.57
2022-10-02T19:54:17.171Z,0.68
2022-10-02T19:56:46.482Z,0.47
2022-10-02T19:59:18.966Z,0.68
2022-10-02T20:01:51.698Z,0.82
2022-10-02T20:04:23.190Z,0.50
2022-10-02T20:06:54.573Z,0.60
2022-10-02T20:09:30.808Z,0.70
2022-10-02T20:12:03.089Z,0.60
2022-10-02T20:14:38.410Z,1.12
2022-10-02T20:17:12.655Z,0.60
2022-10-02T20:19:45.664Z,0.57
2022-10-02T20:22:24.013Z,0.85
2022-10-02T20:24:57.852Z,1.08
2022-10-02T20:27:36.965Z,0.73
2022-10-02T20:30:11.920Z,1.05
2022-10-02T20:32:46.231Z,0.70
2022-10-02T20:35:19.922Z,1.08
2022-10-02T20:37:53.029Z,0.77
2022-10-02T20:40:24.327Z,0.68
2022-10-02T20:42:59.041Z,0.77
2022-10-02T20:45:34.226Z,0.85
2022-10-02T20:48:39.553Z,0.73
2022-10-02T20:51:34.073Z,0.60
2022-10-02T20:54:23.502Z,0.90
2022-10-02T20:57:20.772Z,1.10
2022-10-02T21:00:15.579Z,0.75
2022-10-02T21:03:17.462Z,0.80
2022-10-02T21:06:04.603Z,0.52
2022-10-02T21:09:06.671Z,1.00
2022-10-02T21:11:46.120Z,1.00
2022-10-02T21:14:43.448Z,0.82
2022-10-02T21:17:41.896Z,0.80
2022-10-02T21:20:50.966Z,1.00
2022-10-02T21:23:44.670Z,0.88
2022-10-02T21:26:43.239Z,0.95
2022-10-02T21:29:41.608Z,0.95
2022-10-02T21:32:34.286Z,1.05
2022-10-02T21:35:35.799Z,0.90
2022-10-02T21:38:42.846Z,1.15
2022-10-02T21:41:40.929Z,1.17
2022-10-02T21:44:50.033Z,0.93
2022-10-02T21:47:39.321Z,1.15
2022-10-02T21:50:40.721Z,0.30
2022-10-02T21:53:49.935Z,0.75
2022-10-02T21:56:52.676Z,1.00
2022-10-02T21:59:43.046Z,1.40
2022-10-02T22:02:32.658Z,1.27
2022-10-02T22:05:41.711Z,1.25
2022-10-02T22:08:21.327Z,1.23
2022-10-02T22:10:57.987Z,1.08
2022-10-02T22:13:33.158Z,1.00
2022-10-02T22:16:18.258Z,1.00
2022-10-02T22:18:53.627Z,1.00
2022-10-02T22:21:44.446Z,0.70
2022-10-02T22:24:31.360Z,1.17
2022-10-02T22:27:15.919Z,0.88
2022-10-02T22:29:48.398Z,0.70
2022-10-02T22:33:03.106Z,0.93
2022-10-02T22:35:45.564Z,0.60
2022-10-02T22:38:18.836Z,0.95
2022-10-02T22:40:52.225Z,1.05
2022-10-02T22:43:31.546Z,1.00
2022-10-02T22:46:05.528Z,1.15
2022-10-02T22:48:40.853Z,1.08
2022-10-02T22:51:17.876Z,0.90
2022-10-02T22:53:51.981Z,1.08
2022-10-02T22:56:28.667Z,0.68
2022-10-02T22:59:07.329Z,1.00
2022-10-02T23:01:45.130Z,1.10
2022-10-02T23:04:27.275Z,1.33
2022-10-02T23:07:02.202Z,1.00
2022-10-02T23:09:40.424Z,1.20
2022-10-02T23:12:13.428Z,1.00
2022-10-02T23:14:50.718Z,0.80
2022-10-02T23:17:25.876Z,1.17
2022-10-02T23:20:00.454Z,0.80
2022-10-02T23:22:34.613Z,0.90
2022-10-02T23:25:16.592Z,0.90
2022-10-02T23:27:55.200Z,0.88
2022-10-02T23:30:24.583Z,1.75
2022-10-02T23:32:58.721Z,1.42
2022-10-02T23:35:32.199Z,0.90
2022-10-02T23:38:04.889Z,1.00
2022-10-02T23:41:10.450Z,0.88
2022-10-02T23:43:47.913Z,0.47
2022-10-02T23:46:22.269Z,0.90
2022-10-02T23:48:52.079Z,1.08
2022-10-02T23:51:34.172Z,0.65
2022-10-02T23:54:36.209Z,1.08
2022-10-02T23:57:17.563Z,0.98
